Time;durP1;ratioP1;P1;durP2;ratioP2;P2;SDS_P1;SDS_P2;PMS_P1;PMS_P2;Temp;Humidity;BMP_temperature;BMP_pressure;BME280_temperature;BME280_humidity;BME280_pressure;Samples;Min_cycle;Max_cycle;Signal;HPM_P1;HPM_P2
2022/04/19 00:01:38;;;;;;;42.70;25.23;;;11.80;1.00;;;;;;5113900;28;20181;-69
2022/04/19 00:04:04;;;;;;;41.80;26.37;;;11.80;1.00;;;;;;5113810;28;20167;-69
2022/04/19 00:06:30;;;;;;;40.77;25.23;;;11.80;1.00;;;;;;5113477;28;20515;-69
2022/04/19 00:08:55;;;;;;;36.60;25.70;;;11.70;1.00;;;;;;5113317;28;20178;-69
2022/04/19 00:11:21;;;;;;;38.60;26.17;;;11.60;1.00;;;;;;5113878;28;20182;-69
2022/04/19 00:13:47;;;;;;;38.63;26.70;;;11.60;1.00;;;;;;5113941;28;20171;-69
2022/04/19 00:16:14;;;;;;;38.97;27.30;;;11.60;1.00;;;;;;5113801;28;20599;-69
2022/04/19 00:18:40;;;;;;;38.87;27.13;;;11.60;1.00;;;;;;5113686;28;20217;-69
2022/04/19 00:21:06;;;;;;;39.17;27.40;;;11.60;1.00;;;;;;5113033;28;20178;-68
2022/04/19 00:23:31;;;;;;;40.37;27.43;;;11.60;1.00;;;;;;5113383;28;20179;-69
2022/04/19 00:25:57;;;;;;;43.10;27.50;;;11.50;1.00;;;;;;5113748;28;20675;-69
2022/04/19 00:28:23;;;;;;;41.83;27.60;;;11.50;1.00;;;;;;5113743;28;20542;-69
2022/04/19 00:30:49;;;;;;;42.33;27.77;;;11.40;1.00;;;;;;5113697;28;20178;-69
2022/04/19 00:33:15;;;;;;;42.37;28.27;;;11.40;1.00;;;;;;5113575;28;20183;-69
2022/04/19 00:35:41;;;;;;;42.07;28.37;;;11.30;1.00;;;;;;5113508;28;20171;-69
2022/04/19 00:38:07;;;;;;;40.83;27.83;;;11.30;1.00;;;;;;5113233;28;20706;-69
2022/04/19 00:40:33;;;;;;;40.23;28.40;;;11.30;1.00;;;;;;5113403;28;20553;-69
2022/04/19 00:42:58;;;;;;;42.47;28.20;;;11.40;1.00;;;;;;5095215;28;20263;-68
2022/04/19 00:45:25;;;;;;;44.23;28.83;;;11.40;1.00;;;;;;5113287;28;20186;-68
2022/04/19 00:47:52;;;;;;;44.47;29.53;;;11.40;1.00;;;;;;5113527;28;20176;-69
2022/04/19 00:50:18;;;;;;;40.13;28.23;;;11.30;1.00;;;;;;5113319;28;20202;-68
2022/04/19 00:52:44;;;;;;;45.13;28.80;;;11.20;1.00;;;;;;5094757;28;20211;-69
2022/04/19 00:55:11;;;;;;;42.57;29.57;;;11.30;1.00;;;;;;5113161;28;20532;-69
2022/04/19 00:57:41;;;;;;;46.03;30.33;;;11.30;1.00;;;;;;5113123;28;20222;-69
2022/04/19 01:00:12;;;;;;;41.80;29.97;;;11.30;1.00;;;;;;5113549;28;20650;-68
2022/04/19 01:02:38;;;;;;;41.97;29.20;;;11.20;1.00;;;;;;5113274;28;20176;-68
2022/04/19 01:05:05;;;;;;;48.00;30.67;;;11.20;1.00;;;;;;5112936;28;20707;-68
2022/04/19 01:07:30;;;;;;;42.80;30.10;;;11.10;1.00;;;;;;5112828;28;20167;-68
2022/04/19 01:09:56;;;;;;;41.63;29.50;;;11.00;1.00;;;;;;5094985;28;20182;-68
2022/04/19 01:15:11;;;;;;;45.43;30.37;;;11.00;1.00;;;;;;5113114;28;20220;-69
2022/04/19 01:17:39;;;;;;;45.13;30.83;;;11.00;1.00;;;;;;5113322;28;20171;-68
2022/04/19 01:20:06;;;;;;;44.40;30.83;;;10.90;1.00;;;;;;5112953;28;20182;-68
2022/04/19 01:22:37;;;;;;;44.73;30.97;;;11.00;1.00;;;;;;5094592;28;20175;-68
2022/04/19 01:25:03;;;;;;;43.83;31.47;;;11.00;1.00;;;;;;5094838;28;20254;-69
2022/04/19 01:27:29;;;;;;;44.30;30.63;;;11.00;1.00;;;;;;5113034;28;20175;-69
2022/04/19 01:30:02;;;;;;;47.13;32.13;;;11.00;1.00;;;;;;5113299;28;20232;-69
2022/04/19 01:32:28;;;;;;;47.67;32.27;;;10.90;1.00;;;;;;5113083;28;20178;-68
2022/04/19 01:35:14;;;;;;;45.97;32.07;;;10.90;1.00;;;;;;5115587;28;20178;-69
2022/04/19 01:37:42;;;;;;;42.43;30.93;;;10.80;1.00;;;;;;5116408;28;20185;-69
2022/04/19 01:40:18;;;;;;;49.87;33.20;;;10.80;1.00;;;;;;5116414;28;20195;-69
2022/04/19 01:43:13;;;;;;;46.73;31.93;;;10.80;1.00;;;;;;5116706;28;20159;-69
2022/04/19 01:45:40;;;;;;;45.17;32.50;;;10.80;1.00;;;;;;5112292;28;20614;-69
2022/04/19 01:48:07;;;;;;;46.10;32.23;;;10.70;1.00;;;;;;5116466;28;20540;-69
2022/04/19 01:50:32;;;;;;;49.60;33.63;;;10.70;1.00;;;;;;5115958;28;20236;-69
2022/04/19 01:53:02;;;;;;;45.83;34.00;;;10.70;1.00;;;;;;5116404;28;20637;-69
2022/04/19 01:55:28;;;;;;;48.13;33.73;;;10.70;1.00;;;;;;5116262;28;20645;-69
2022/04/19 01:57:56;;;;;;;49.90;33.27;;;10.60;1.00;;;;;;5115980;28;20239;-69
2022/04/19 02:00:21;;;;;;;49.37;33.00;;;10.50;1.00;;;;;;5116268;28;20201;-69
2022/04/19 02:02:48;;;;;;;49.37;32.97;;;10.50;1.00;;;;;;5116164;28;20171;-69
2022/04/19 02:05:15;;;;;;;45.07;33.40;;;10.60;1.00;;;;;;5115593;28;20270;-69
2022/04/19 02:07:42;;;;;;;49.80;33.43;;;10.60;1.00;;;;;;5116213;28;20171;-69
2022/04/19 02:10:11;;;;;;;47.20;32.87;;;10.60;1.00;;;;;;5116084;28;20278;-69
2022/04/19 02:12:38;;;;;;;47.53;34.73;;;10.70;1.00;;;;;;5115982;28;20579;-68
2022/04/19 02:15:04;;;;;;;52.37;35.27;;;10.70;1.00;;;;;;5115825;28;20174;-68
2022/04/19 02:17:30;;;;;;;44.03;33.27;;;10.70;1.00;;;;;;5115653;28;20171;-68
2022/04/19 02:19:59;;;;;;;49.63;34.73;;;10.70;1.00;;;;;;5115127;28;20199;-68
2022/04/19 02:22:26;;;;;;;47.03;34.07;;;10.80;1.00;;;;;;5115872;28;20163;-69
2022/04/19 02:24:52;;;;;;;51.80;34.93;;;10.70;1.00;;;;;;5115722;28;20174;-69
2022/04/19 02:27:18;;;;;;;52.63;34.43;;;10.80;1.00;;;;;;5115711;28;20201;-69
2022/04/19 02:29:44;;;;;;;55.93;36.13;;;10.80;1.00;;;;;;5115570;28;20179;-69
2022/04/19 02:32:09;;;;;;;48.93;35.97;;;10.80;1.00;;;;;;5115376;28;20171;-69
2022/04/19 02:34:35;;;;;;;51.47;36.50;;;10.80;1.00;;;;;;5096759;28;20171;-69
2022/04/19 02:37:01;;;;;;;56.07;37.73;;;10.80;1.00;;;;;;5115682;28;20171;-68
2022/04/19 02:39:27;;;;;;;52.33;37.47;;;10.80;1.00;;;;;;5115310;28;20215;-68
2022/04/19 02:41:53;;;;;;;58.03;37.83;;;10.80;1.00;;;;;;5115142;28;20175;-68
2022/04/19 02:44:18;;;;;;;52.57;36.83;;;10.80;1.00;;;;;;5114698;28;20183;-69
2022/04/19 02:46:44;;;;;;;54.73;38.63;;;10.80;1.00;;;;;;5115024;28;20242;-68
2022/04/19 02:49:09;;;;;;;51.33;38.40;;;10.70;1.00;;;;;;5114836;28;20661;-68
2022/04/19 02:51:35;;;;;;;52.47;37.93;;;10.70;1.00;;;;;;5114959;28;20175;-68
2022/04/19 02:54:01;;;;;;;59.30;39.97;;;10.70;1.00;;;;;;5114889;28;20167;-68
2022/04/19 02:56:27;;;;;;;56.27;40.40;;;10.70;1.00;;;;;;5114886;28;20336;-69
2022/04/19 02:58:53;;;;;;;54.63;39.47;;;10.60;1.00;;;;;;5114829;28;20684;-68
2022/04/19 03:01:18;;;;;;;55.93;38.87;;;10.60;1.00;;;;;;5114751;28;20163;-68
2022/04/19 03:03:45;;;;;;;53.73;38.70;;;10.60;1.00;;;;;;5114467;28;20641;-69
2022/04/19 03:06:10;;;;;;;57.40;40.30;;;10.60;1.00;;;;;;5114864;28;20192;-68
2022/04/19 03:08:36;;;;;;;59.40;41.20;;;10.50;1.00;;;;;;5114911;28;20246;-69
2022/04/19 03:11:02;;;;;;;57.00;39.93;;;10.50;1.00;;;;;;5114640;28;20549;-69
2022/04/19 03:13:28;;;;;;;57.00;40.63;;;10.40;1.00;;;;;;5114667;28;20179;-68
2022/04/19 03:15:54;;;;;;;54.83;39.47;;;10.40;1.00;;;;;;5114808;28;20170;-69
2022/04/19 03:18:20;;;;;;;56.60;39.80;;;10.40;1.00;;;;;;5114167;28;20210;-68
2022/04/19 03:20:47;;;;;;;63.23;42.53;;;10.40;1.00;;;;;;5114575;28;20250;-69
2022/04/19 03:28:42;;;;;;;56.93;40.97;;;10.10;1.00;;;;;;5114457;28;20588;-69
2022/04/19 03:31:08;;;;;;;60.73;41.20;;;10.10;1.00;;;;;;5113959;28;20198;-69
2022/04/19 03:33:36;;;;;;;57.83;40.80;;;10.00;1.00;;;;;;5095502;28;20641;-68
2022/04/19 03:36:02;;;;;;;57.73;40.60;;;10.00;1.00;;;;;;5114361;28;20179;-69
2022/04/19 03:38:28;;;;;;;65.60;43.27;;;10.10;1.00;;;;;;5114295;28;20203;-69
2022/04/19 03:40:53;;;;;;;57.50;41.83;;;10.10;1.00;;;;;;5114169;28;20191;-68
2022/04/19 03:43:20;;;;;;;59.47;42.60;;;10.10;1.00;;;;;;5113833;28;20626;-68
2022/04/19 03:45:45;;;;;;;66.13;43.13;;;10.10;1.00;;;;;;5113664;28;20156;-68
2022/04/19 03:48:13;;;;;;;61.73;43.17;;;10.10;1.00;;;;;;5113569;28;20166;-69
2022/04/19 03:50:40;;;;;;;65.47;43.17;;;10.10;1.00;;;;;;5113655;28;20630;-68
2022/04/19 03:53:06;;;;;;;61.63;42.60;;;10.00;1.00;;;;;;5114090;28;20163;-68
2022/04/19 03:55:31;;;;;;;64.23;44.00;;;10.00;1.00;;;;;;5113175;28;20175;-69
2022/04/19 03:57:57;;;;;;;66.03;44.57;;;10.00;1.00;;;;;;5112594;28;20268;-68
2022/04/19 04:00:23;;;;;;;64.20;43.47;;;10.00;1.00;;;;;;5094902;28;20175;-69
2022/04/19 04:02:49;;;;;;;68.20;44.90;;;9.90;1.00;;;;;;5113641;28;20556;-69
2022/04/19 04:05:15;;;;;;;68.87;45.77;;;9.80;1.00;;;;;;5113387;28;20171;-68
2022/04/19 04:07:41;;;;;;;64.40;43.33;;;9.80;1.00;;;;;;5113808;28;20198;-69
2022/04/19 04:10:07;;;;;;;63.23;44.77;;;9.80;1.00;;;;;;5113251;28;20167;-68
2022/04/19 04:12:33;;;;;;;64.13;44.67;;;9.80;1.00;;;;;;5113051;28;20167;-69
2022/04/19 04:15:00;;;;;;;63.47;44.70;;;9.80;1.00;;;;;;5112584;28;20174;-69
2022/04/19 04:17:27;;;;;;;67.17;45.37;;;9.80;1.00;;;;;;5113345;28;20171;-69
2022/04/19 04:19:52;;;;;;;69.80;44.60;;;9.90;1.00;;;;;;5113519;28;20221;-69
2022/04/19 04:22:18;;;;;;;65.33;44.50;;;9.80;1.00;;;;;;5113116;28;20178;-68
2022/04/19 04:24:43;;;;;;;69.13;45.63;;;9.70;1.00;;;;;;5112969;28;20530;-69
2022/04/19 04:27:09;;;;;;;66.63;44.87;;;9.60;1.00;;;;;;5113281;28;20171;-68
2022/04/19 04:29:36;;;;;;;69.97;45.67;;;9.70;1.00;;;;;;5094764;28;20171;-69
2022/04/19 04:32:02;;;;;;;70.10;46.63;;;9.70;1.00;;;;;;5113395;28;20345;-68
2022/04/19 04:34:28;;;;;;;69.23;45.60;;;9.60;1.00;;;;;;5112710;28;20175;-68
2022/04/19 04:36:54;;;;;;;69.80;44.80;;;9.50;3.70;;;;;;5113104;28;20174;-68
2022/04/19 04:39:19;;;;;;;65.40;45.00;;;9.50;10.20;;;;;;5094416;28;20299;-68
2022/04/19 04:41:45;;;;;;;64.47;44.67;;;9.50;13.70;;;;;;5112645;28;20174;-69
2022/04/19 04:44:11;;;;;;;64.03;44.37;;;9.50;13.70;;;;;;5112759;28;20164;-69
2022/04/19 04:49:36;;;;;;;64.83;43.23;;;9.50;16.00;;;;;;5113237;28;20288;-68
2022/04/19 04:52:03;;;;;;;64.87;46.03;;;9.50;16.20;;;;;;5094234;28;20172;-69
2022/04/19 04:54:29;;;;;;;62.27;44.27;;;9.60;15.20;;;;;;5112059;28;20175;-69
2022/04/19 04:56:54;;;;;;;67.27;45.00;;;9.70;15.80;;;;;;5094131;28;20266;-69
2022/04/19 04:59:20;;;;;;;63.03;44.07;;;10.10;16.40;;;;;;5112555;28;20227;-68
2022/04/19 05:01:46;;;;;;;60.37;43.37;;;10.50;2.30;;;;;;5112488;28;20554;-69
2022/04/19 05:04:12;;;;;;;61.73;43.47;;;11.00;1.00;;;;;;5112748;28;20179;-69
2022/04/19 05:06:38;;;;;;;59.87;42.40;;;11.50;1.00;;;;;;5112423;28;20175;-69
2022/04/19 05:09:04;;;;;;;62.07;41.70;;;12.00;1.00;;;;;;5115373;28;20170;-69
2022/04/19 05:11:30;;;;;;;65.43;41.53;;;12.40;1.00;;;;;;5115873;28;20164;-68
2022/04/19 05:13:55;;;;;;;59.17;41.53;;;12.70;1.00;;;;;;5116197;28;20265;-68
2022/04/19 05:16:21;;;;;;;58.60;40.07;;;12.80;1.00;;;;;;5116353;28;20195;-70
2022/04/19 05:18:47;;;;;;;55.63;39.63;;;12.80;1.00;;;;;;5116167;28;20504;-68
2022/04/19 05:21:12;;;;;;;53.53;40.00;;;13.40;99.90;;;;;;5116086;28;20220;-69
2022/04/19 05:23:38;;;;;;;50.87;39.27;;;13.70;1.00;;;;;;5115464;28;20175;-68
2022/04/19 05:26:03;;;;;;;50.97;38.90;;;14.30;1.00;;;;;;5115298;28;20526;-68
2022/04/19 05:28:29;;;;;;;50.43;38.37;;;15.20;1.00;;;;;;5115867;28;20255;-69
2022/04/19 05:30:56;;;;;;;47.70;37.67;;;15.70;1.00;;;;;;5114857;28;20566;-70
2022/04/19 05:33:22;;;;;;;49.47;38.27;;;16.10;1.00;;;;;;5115481;28;20212;-69
2022/04/19 05:35:48;;;;;;;52.07;35.93;;;16.60;1.00;;;;;;5114959;28;20163;-69
2022/04/19 05:38:13;;;;;;;50.73;37.70;;;17.00;99.90;;;;;;5115482;28;20610;-70
2022/04/19 05:40:40;;;;;;;48.33;37.53;;;17.20;86.40;;;;;;5115041;28;20206;-69
2022/04/19 05:43:06;;;;;;;46.70;37.20;;;17.30;1.00;;;;;;5115010;28;20258;-70
2022/04/19 05:45:32;;;;;;;48.43;37.80;;;17.60;1.00;;;;;;5114721;28;20277;-71
2022/04/19 05:47:57;;;;;;;50.93;37.50;;;17.50;1.00;;;;;;5096130;28;20168;-70
2022/04/19 05:50:23;;;;;;;46.00;36.57;;;18.30;1.00;;;;;;5114481;28;20178;-70
2022/04/19 05:52:49;;;;;;;52.70;37.13;;;19.20;1.00;;;;;;5115037;28;20175;-71
2022/04/19 05:55:14;;;;;;;47.50;36.33;;;20.10;99.90;;;;;;5114521;28;20237;-70
2022/04/19 05:57:40;;;;;;;42.42;35.60;;;19.90;99.90;;;;;;5095789;28;20621;-71
2022/04/19 06:00:06;;;;;;;48.22;36.92;;;19.50;99.90;;;;;;5115091;28;20785;-70
2022/04/19 06:05:16;;;;;;;53.70;37.77;;;17.80;1.00;;;;;;5113878;28;20194;-71
2022/04/19 06:07:47;;;;;;;49.50;37.33;;;17.40;1.00;;;;;;5115260;28;20610;-69
2022/04/19 06:10:14;;;;;;;46.57;35.57;;;16.90;1.00;;;;;;5113657;28;20179;-69
2022/04/19 06:12:43;;;;;;;48.57;37.00;;;16.20;99.90;;;;;;5095711;28;20171;-71
2022/04/19 06:15:11;;;;;;;42.90;35.43;;;15.90;1.00;;;;;;5114100;28;20609;-69
2022/04/19 06:17:38;;;;;;;50.63;38.03;;;15.90;1.00;;;;;;5114144;28;20254;-70
2022/04/19 06:20:05;;;;;;;46.63;37.70;;;16.20;1.00;;;;;;5112719;28;20217;-69
2022/04/19 06:22:34;;;;;;;47.27;37.43;;;16.30;1.00;;;;;;5113686;28;20190;-69
2022/04/19 06:25:01;;;;;;;48.40;37.37;;;16.10;1.00;;;;;;5114031;28;20251;-68
2022/04/19 06:27:27;;;;;;;50.60;37.63;;;16.50;99.90;;;;;;5113159;28;20191;-68
2022/04/19 06:29:53;;;;;;;54.17;38.03;;;17.00;99.90;;;;;;5113981;28;20163;-70
2022/04/19 06:32:22;;;;;;;49.00;37.40;;;18.00;1.00;;;;;;5096038;28;20273;-71
2022/04/19 06:34:49;;;;;;;46.43;37.23;;;18.70;1.00;;;;;;5113550;28;20516;-70
2022/04/19 06:37:15;;;;;;;43.70;36.37;;;18.70;99.90;;;;;;5114242;28;20262;-70
2022/04/19 06:39:41;;;;;;;45.93;35.93;;;18.90;99.90;;;;;;5113809;28;20720;-70
2022/04/19 06:42:07;;;;;;;47.53;36.37;;;18.90;99.90;;;;;;5113163;28;20263;-70
2022/04/19 06:44:33;;;;;;;45.07;35.77;;;18.60;99.90;;;;;;5113496;28;20653;-71
2022/04/19 06:46:59;;;;;;;50.20;37.27;;;18.80;99.90;;;;;;5113741;28;20589;-71
2022/04/19 06:49:25;;;;;;;53.08;36.10;;;18.50;99.90;;;;;;5095167;28;20183;-70
2022/04/19 06:51:51;;;;;;;44.15;36.15;;;18.80;99.90;;;;;;5113714;28;20479;-71
2022/04/19 06:54:17;;;;;;;50.45;35.85;;;18.70;99.90;;;;;;5113340;28;20613;-71
2022/04/19 06:56:45;;;;;;;45.83;35.25;;;19.00;99.90;;;;;;5113223;28;20223;-71
2022/04/19 06:59:11;;;;;;;51.90;36.58;;;19.50;99.90;;;;;;5113758;28;20241;-71
2022/04/19 07:01:39;;;;;;;52.33;35.95;;;20.00;99.90;;;;;;5112604;28;20681;-71
2022/04/19 07:04:05;;;;;;;55.22;35.75;;;20.30;99.90;;;;;;5113522;28;20171;-71
2022/04/19 07:06:30;;;;;;;43.55;33.92;;;20.80;99.90;;;;;;5111370;28;20171;-70
2022/04/19 07:08:56;;;;;;;44.35;34.22;;;20.80;99.90;;;;;;5084180;28;20259;-71
2022/04/19 07:11:22;;;;;;;50.25;34.30;;;20.70;99.90;;;;;;5090785;28;20576;-71
2022/04/19 07:13:47;;;;;;;48.72;33.95;;;20.80;99.90;;;;;;5112537;28;20661;-72
2022/04/19 07:16:13;;;;;;;40.63;32.67;;;20.70;99.90;;;;;;5111754;28;20576;-72
2022/04/19 07:18:39;;;;;;;36.22;32.13;;;20.50;99.90;;;;;;5093794;28;20195;-72
2022/04/19 07:26:37;;;;;;;47.90;32.20;;;20.10;99.90;;;;;;5108142;28;20190;-71
2022/04/19 07:29:12;;;;;;;43.15;31.73;;;19.70;99.90;;;;;;5113231;28;20163;-71
2022/04/19 07:31:46;;;;;;;46.97;31.88;;;19.30;99.90;;;;;;5112591;28;20186;-71
2022/04/19 07:34:13;;;;;;;41.03;32.47;;;18.80;99.90;;;;;;5112348;28;20218;-71
2022/04/19 07:36:42;;;;;;;43.33;31.25;;;19.00;99.90;;;;;;5112515;28;20171;-71
2022/04/19 07:39:12;;;;;;;47.17;30.88;;;19.60;99.90;;;;;;5111560;28;20222;-72
2022/04/19 07:41:38;;;;;;;56.08;32.13;;;19.60;99.90;;;;;;5112349;28;20218;-72
2022/04/19 07:44:08;;;;;;;54.03;31.80;;;19.60;99.90;;;;;;5112419;28;20175;-71
2022/04/19 07:46:35;;;;;;;58.25;31.95;;;19.30;99.90;;;;;;5111489;28;20186;-71
2022/04/19 07:49:00;;;;;;;56.58;30.60;;;19.20;99.90;;;;;;5093719;28;20171;-71
2022/04/19 07:51:26;;;;;;;57.28;31.70;;;19.10;99.90;;;;;;5111220;28;20167;-71
2022/04/19 07:53:52;;;;;;;57.53;32.10;;;19.70;99.90;;;;;;5110556;28;20232;-71
2022/04/19 07:56:18;;;;;;;60.78;32.45;;;19.80;99.90;;;;;;5111557;28;20658;-73
2022/04/19 07:58:47;;;;;;;57.80;31.55;;;20.10;99.90;;;;;;5107988;28;20218;-72
2022/04/19 08:01:13;;;;;;;52.47;30.75;;;20.10;99.90;;;;;;5109549;27;20174;-74
2022/04/19 08:03:39;;;;;;;51.92;30.63;;;19.70;99.90;;;;;;5092187;28;20198;-74
2022/04/19 08:06:05;;;;;;;55.10;29.80;;;19.60;99.90;;;;;;5110728;28;20179;-75
2022/04/19 08:08:31;;;;;;;55.65;29.05;;;19.80;99.90;;;;;;5111790;28;20669;-74
2022/04/19 08:10:57;;;;;;;53.60;29.35;;;19.70;99.90;;;;;;5111842;28;20175;-75
2022/04/19 08:13:24;;;;;;;55.17;29.48;;;20.40;99.90;;;;;;5112400;28;20183;-74
2022/04/19 08:15:50;;;;;;;43.15;26.80;;;20.70;99.90;;;;;;5112176;28;20174;-75
2022/04/19 08:18:16;;;;;;;45.28;27.67;;;20.50;99.90;;;;;;5112576;28;20199;-75
2022/04/19 08:20:43;;;;;;;51.35;27.08;;;20.80;99.90;;;;;;5111876;28;20197;-75
2022/04/19 08:23:09;;;;;;;50.30;27.63;;;20.80;99.90;;;;;;5111913;28;20175;-76
2022/04/19 08:25:36;;;;;;;52.55;26.75;;;21.20;99.90;;;;;;5112560;28;20159;-73
2022/04/19 08:28:02;;;;;;;54.40;26.45;;;21.50;99.90;;;;;;5111317;28;20219;-74
2022/04/19 08:30:27;;;;;;;53.88;26.88;;;21.60;99.90;;;;;;5107416;28;20576;-74
2022/04/19 08:32:53;;;;;;;55.03;24.17;;;21.60;99.90;;;;;;5090642;28;20179;-73
2022/04/19 08:35:18;;;;;;;46.97;23.27;;;21.80;99.90;;;;;;5111692;28;20163;-72
2022/04/19 08:37:45;;;;;;;50.72;22.83;;;22.00;99.90;;;;;;5110658;28;20527;-74
2022/04/19 08:40:13;;;;;;;43.28;21.90;;;22.10;99.90;;;;;;5112028;28;20236;-74
2022/04/19 08:42:40;;;;;;;27.23;18.67;;;22.40;99.90;;;;;;5094967;28;20178;-74
2022/04/19 08:45:09;;;;;;;28.27;17.20;;;22.50;99.90;;;;;;5115136;28;20652;-74
2022/04/19 08:47:38;;;;;;;27.85;17.75;;;22.20;99.90;;;;;;5116082;28;20235;-75
2022/04/19 08:50:07;;;;;;;19.90;14.38;;;21.80;99.90;;;;;;5115384;28;20167;-74
2022/04/19 08:52:33;;;;;;;17.52;12.98;;;21.20;99.90;;;;;;5097128;28;20182;-75
2022/04/19 08:57:44;;;;;;;17.35;12.77;;;19.10;99.90;;;;;;5116009;28;20268;-73
2022/04/19 09:00:11;;;;;;;13.82;12.20;;;19.40;99.90;;;;;;5096942;28;20217;-74
2022/04/19 09:02:37;;;;;;;12.98;11.70;;;19.80;99.90;;;;;;5116492;28;20634;-76
2022/04/19 09:05:11;;;;;;;15.05;12.18;;;19.60;99.90;;;;;;5115652;28;20182;-74
2022/04/19 09:07:37;;;;;;;14.07;11.45;;;20.40;99.90;;;;;;5116503;28;20345;-76
2022/04/19 09:10:06;;;;;;;14.80;12.15;;;20.40;99.90;;;;;;5114818;28;20672;-76
2022/04/19 09:12:32;;;;;;;16.05;12.52;;;20.10;99.90;;;;;;5116035;28;20250;-76
2022/04/19 09:15:06;;;;;;;12.82;11.45;;;20.80;99.90;;;;;;5115804;28;20618;-76
2022/04/19 09:17:36;;;;;;;13.27;11.13;;;20.90;99.90;;;;;;5115731;28;20251;-76
2022/04/19 09:20:19;;;;;;;13.32;10.98;;;21.30;99.90;;;;;;5115245;28;20742;-74
2022/04/19 09:22:59;;;;;;;13.85;11.23;;;21.10;99.90;;;;;;5114192;28;20645;-75
2022/04/19 09:25:25;;;;;;;11.95;10.73;;;20.90;99.90;;;;;;5115766;28;20175;-74
2022/04/19 09:27:56;;;;;;;14.25;10.48;;;21.40;99.90;;;;;;5114537;28;20244;-74
2022/04/19 09:30:30;;;;;;;11.20;10.07;;;22.40;99.90;;;;;;5115971;28;20167;-75
2022/04/19 09:33:16;;;;;;;9.70;8.80;;;22.50;95.40;;;;;;5115284;28;20202;-75
2022/04/19 09:35:58;;;;;;;10.70;9.60;;;22.00;93.80;;;;;;5115209;28;20258;-75
2022/04/19 09:38:49;;;;;;;9.63;8.63;;;21.70;95.50;;;;;;5115927;28;20191;-76
2022/04/19 09:41:29;;;;;;;11.75;9.63;;;21.50;93.40;;;;;;5113537;28;20198;-76
2022/04/19 09:44:12;;;;;;;10.65;9.07;;;21.30;93.80;;;;;;5115660;28;20174;-76
2022/04/19 09:46:38;;;;;;;9.60;8.63;;;21.80;93.90;;;;;;5114288;28;20195;-76
2022/04/19 09:49:05;;;;;;;10.32;8.40;;;21.50;87.70;;;;;;5114867;28;20159;-75
2022/04/19 09:51:32;;;;;;;10.52;8.50;;;21.10;90.50;;;;;;5113082;28;20176;-75
2022/04/19 09:53:58;;;;;;;8.88;8.00;;;21.20;90.00;;;;;;5113540;28;20175;-75
2022/04/19 09:56:23;;;;;;;8.88;7.97;;;21.20;82.90;;;;;;5092315;28;20241;-76
2022/04/19 09:58:50;;;;;;;10.50;8.90;;;21.50;84.00;;;;;;5093256;28;20693;-75
2022/04/19 10:09:26;;;;;;;11.27;10.18;;;21.10;90.30;;;;;;5094956;28;20163;-76
2022/04/19 10:11:52;;;;;;;11.63;10.10;;;21.80;90.20;;;;;;5093363;28;20258;-73
2022/04/19 10:14:20;;;;;;;11.35;10.18;;;22.10;82.50;;;;;;5082286;28;20766;-73
2022/04/19 10:16:48;;;;;;;11.05;9.93;;;22.10;85.60;;;;;;5093478;28;20638;-75
2022/04/19 10:19:15;;;;;;;11.80;9.98;;;22.90;78.30;;;;;;5093482;28;20252;-76
2022/04/19 10:21:43;;;;;;;10.82;9.82;;;23.60;76.50;;;;;;5094483;28;20208;-75
2022/04/19 10:24:14;;;;;;;12.65;10.43;;;24.10;70.50;;;;;;5094691;28;20183;-75
2022/04/19 10:26:48;;;;;;;10.73;9.60;;;23.40;67.60;;;;;;5094251;28;20183;-75
2022/04/19 10:29:23;;;;;;;6.60;5.95;;;23.60;66.90;;;;;;5093861;28;20156;-74
2022/04/19 10:31:59;;;;;;;6.63;6.03;;;22.80;52.70;;;;;;5093030;28;20160;-74
2022/04/19 10:34:26;;;;;;;10.10;7.20;;;22.30;50.00;;;;;;5093583;28;20207;-74
2022/04/19 10:36:54;;;;;;;7.43;6.78;;;22.00;51.60;;;;;;5094038;28;20247;-74
2022/04/19 10:39:22;;;;;;;7.53;6.78;;;22.10;48.90;;;;;;5093172;28;20215;-73
2022/04/19 10:41:53;;;;;;;9.05;6.55;;;22.50;52.40;;;;;;5093860;28;20171;-74
2022/04/19 10:44:41;;;;;;;8.10;6.63;;;23.60;48.80;;;;;;5092761;28;20183;-75
2022/04/19 10:47:14;;;;;;;7.90;7.15;;;23.70;41.30;;;;;;5073523;28;20657;-76
2022/04/19 10:49:51;;;;;;;7.18;6.50;;;24.20;41.00;;;;;;5088957;28;20168;-75
2022/04/19 10:52:43;;;;;;;7.60;7.00;;;23.60;35.90;;;;;;5089218;28;20168;-75
2022/04/19 10:55:18;;;;;;;8.35;7.38;;;23.10;40.30;;;;;;5091596;28;20164;-75
2022/04/19 11:00:40;;;;;;;8.75;7.88;;;23.20;38.50;;;;;;5113504;28;20186;-75
2022/04/19 11:03:10;;;;;;;12.43;8.20;;;24.00;32.20;;;;;;5110455;28;21705;-74
2022/04/19 11:05:46;;;;;;;9.48;8.52;;;24.00;35.20;;;;;;5112004;28;20177;-74
2022/04/19 11:08:30;;;;;;;8.73;7.85;;;22.70;38.30;;;;;;5113138;28;20166;-74
2022/04/19 11:10:55;;;;;;;10.15;8.63;;;22.30;37.30;;;;;;5112857;28;20163;-75
2022/04/19 11:13:27;;;;;;;10.05;8.32;;;21.90;39.20;;;;;;5113067;28;20224;-73
2022/04/19 11:16:00;;;;;;;8.95;8.05;;;21.70;39.90;;;;;;5095335;28;20687;-74
2022/04/19 11:18:39;;;;;;;11.23;7.78;;;22.00;39.50;;;;;;5112683;28;20255;-74
2022/04/19 11:21:06;;;;;;;11.07;7.97;;;21.50;36.50;;;;;;5113878;28;20686;-73
2022/04/19 11:23:46;;;;;;;10.90;8.88;;;21.90;38.40;;;;;;5113468;28;20175;-76
2022/04/19 11:26:40;;;;;;;11.65;9.10;;;21.90;38.90;;;;;;5113104;28;20171;-75
2022/04/19 11:29:09;;;;;;;10.60;7.88;;;21.80;35.40;;;;;;5091556;28;20187;-73
2022/04/19 11:31:35;;;;;;;11.10;8.55;;;21.90;37.10;;;;;;5112467;28;20649;-75
2022/04/19 11:34:13;;;;;;;8.70;7.90;;;21.10;37.20;;;;;;5112615;28;20646;-75
2022/04/19 11:36:39;;;;;;;14.00;8.88;;;21.20;38.40;;;;;;5112233;28;20178;-73
2022/04/19 11:39:05;;;;;;;8.32;7.43;;;20.90;36.80;;;;;;5112944;28;20198;-76
2022/04/19 11:47:01;;;;;;;7.90;7.10;;;20.50;34.40;;;;;;5113437;28;20178;-74
2022/04/19 11:49:34;;;;;;;8.60;7.03;;;20.20;32.00;;;;;;5111620;28;20183;-73
2022/04/19 11:52:03;;;;;;;11.45;7.65;;;20.40;36.00;;;;;;5112527;28;20167;-73
2022/04/19 11:54:31;;;;;;;8.88;7.78;;;20.40;36.00;;;;;;5112812;28;20198;-75
2022/04/19 11:56:57;;;;;;;9.77;7.38;;;20.80;37.30;;;;;;5112879;28;20222;-74
2022/04/19 11:59:28;;;;;;;7.85;7.00;;;21.60;34.10;;;;;;5112098;28;20194;-73
2022/04/19 12:01:54;;;;;;;7.63;7.00;;;21.60;28.40;;;;;;5112039;28;20260;-74
2022/04/19 12:04:20;;;;;;;10.25;8.23;;;21.90;25.90;;;;;;5111306;28;20253;-72
2022/04/19 12:06:54;;;;;;;10.77;8.73;;;21.30;28.00;;;;;;5112628;28;20167;-73
2022/04/19 12:09:20;;;;;;;11.73;8.20;;;21.60;29.40;;;;;;5112124;28;20187;-73
2022/04/19 12:11:47;;;;;;;10.68;8.43;;;21.80;28.70;;;;;;5112591;28;20170;-74
2022/04/19 12:14:48;;;;;;;9.15;8.05;;;21.50;30.80;;;;;;5111871;28;20175;-73
2022/04/19 12:17:19;;;;;;;8.73;7.82;;;21.10;32.80;;;;;;4999611;28;20264;-72
2022/04/19 12:19:45;;;;;;;8.75;7.72;;;20.90;32.90;;;;;;4990222;28;20221;-71
2022/04/19 12:22:21;;;;;;;9.93;8.82;;;21.00;30.50;;;;;;4997031;28;20190;-73
2022/04/19 12:24:53;;;;;;;10.63;8.95;;;21.10;34.20;;;;;;5007054;28;20174;-73
2022/04/19 12:27:34;;;;;;;10.05;8.25;;;21.10;35.70;;;;;;5008672;28;20182;-75
2022/04/19 12:30:12;;;;;;;11.93;10.43;;;21.30;36.60;;;;;;5008975;28;20174;-72
2022/04/19 12:33:09;;;;;;;9.07;8.18;;;20.70;37.70;;;;;;5010032;28;20202;-73
2022/04/19 12:35:35;;;;;;;11.45;9.05;;;20.60;37.20;;;;;;5009810;28;20277;-74
2022/04/19 12:38:09;;;;;;;8.77;7.88;;;21.10;35.10;;;;;;5009447;28;20619;-74
2022/04/19 12:40:36;;;;;;;8.88;7.90;;;21.40;37.40;;;;;;5009301;28;20201;-74
2022/04/19 12:43:02;;;;;;;9.88;8.00;;;21.10;34.20;;;;;;5008807;28;20170;-74
2022/04/19 12:45:32;;;;;;;9.13;6.90;;;21.20;33.20;;;;;;4993724;28;20265;-73
2022/04/19 12:48:00;;;;;;;8.52;7.65;;;20.60;36.20;;;;;;5010099;28;20182;-72
2022/04/19 12:50:27;;;;;;;11.43;6.93;;;20.70;35.40;;;;;;5009770;28;20657;-74
2022/04/19 12:52:53;;;;;;;9.73;6.90;;;21.00;31.50;;;;;;5015205;28;20190;-73
2022/04/19 12:55:28;;;;;;;9.57;7.25;;;21.00;34.50;;;;;;5110719;28;20164;-75
2022/04/19 12:58:10;;;;;;;8.18;7.28;;;21.20;38.20;;;;;;5111040;28;20214;-74
2022/04/19 13:00:36;;;;;;;7.80;6.47;;;21.20;38.40;;;;;;5112436;28;20231;-75
2022/04/19 13:03:05;;;;;;;7.28;6.57;;;21.30;34.50;;;;;;5112055;28;20618;-74
2022/04/19 13:13:51;;;;;;;7.55;6.30;;;22.30;31.70;;;;;;5080041;28;20630;-73
2022/04/19 13:16:17;;;;;;;6.60;5.78;;;21.50;35.10;;;;;;5111794;28;20183;-72
2022/04/19 13:18:42;;;;;;;6.97;6.15;;;21.40;34.90;;;;;;5112208;28;20218;-73
2022/04/19 13:21:08;;;;;;;9.57;6.65;;;21.60;34.50;;;;;;5112095;28;20179;-73
2022/04/19 13:23:34;;;;;;;9.98;6.82;;;21.70;35.80;;;;;;5111608;28;20242;-74
2022/04/19 13:25:59;;;;;;;9.32;7.32;;;22.10;33.80;;;;;;5110634;28;20179;-75
2022/04/19 13:28:26;;;;;;;8.38;6.90;;;22.40;33.10;;;;;;5112593;28;20630;-73